createdAt,value
2017-11-20T00:02:20.641Z,53.68
2017-11-20T00:04:47.195Z,53.71
2017-11-20T00:07:13.385Z,53.78
2017-11-20T00:09:39.585Z,53.85
2017-11-20T00:12:05.933Z,53.89
2017-11-20T00:14:32.122Z,53.87
2017-11-20T00:16:58.331Z,53.89
2017-11-20T00:19:24.586Z,53.83
2017-11-20T00:21:50.778Z,53.84
2017-11-20T00:24:17.097Z,53.83
2017-11-20T00:26:43.432Z,53.85
2017-11-20T00:29:09.640Z,53.97
2017-11-20T00:31:35.852Z,54.06
2017-11-20T00:34:02.119Z,54.16
2017-11-20T00:36:28.394Z,54.17
2017-11-20T00:38:54.597Z,54.10
2017-11-20T00:41:20.851Z,54.19
2017-11-20T00:43:47.042Z,54.29
2017-11-20T00:46:13.255Z,54.32
2017-11-20T00:48:39.617Z,54.41
2017-11-20T00:51:05.803Z,54.49
2017-11-20T00:53:31.993Z,54.58
2017-11-20T00:55:58.242Z,54.73
2017-11-20T00:58:24.656Z,55.00
2017-11-20T01:00:50.845Z,55.15
2017-11-20T01:03:17.087Z,55.29
2017-11-20T01:05:43.366Z,55.50
2017-11-20T01:08:09.586Z,55.43
2017-11-20T01:10:35.832Z,55.62
2017-11-20T01:13:02.028Z,55.63
2017-11-20T01:15:28.226Z,55.76
2017-11-20T01:17:54.444Z,55.80
2017-11-20T01:20:20.713Z,55.83
2017-11-20T01:22:46.894Z,55.96
2017-11-20T01:25:13.156Z,56.13
2017-11-20T01:27:39.393Z,56.09
2017-11-20T01:30:05.594Z,56.08
2017-11-20T01:32:31.849Z,56.17
2017-11-20T01:34:58.098Z,56.21
2017-11-20T01:37:24.272Z,56.41
2017-11-20T01:39:50.702Z,56.37
2017-11-20T01:42:16.956Z,56.54
2017-11-20T01:44:43.430Z,56.62
2017-11-20T01:47:09.643Z,56.60
2017-11-20T01:49:35.980Z,56.75
2017-11-20T01:52:02.311Z,57.06
2017-11-20T01:54:28.506Z,56.91
2017-11-20T01:56:54.984Z,56.86
2017-11-20T01:59:21.416Z,56.77
2017-11-20T02:01:47.698Z,56.75
2017-11-20T02:04:13.953Z,56.69
2017-11-20T02:06:40.154Z,56.74
2017-11-20T02:09:06.345Z,56.83
2017-11-20T02:11:32.698Z,56.88
2017-11-20T02:13:58.957Z,56.91
2017-11-20T02:16:25.149Z,57.35
2017-11-20T02:18:51.628Z,57.05
2017-11-20T02:21:18.078Z,56.96
2017-11-20T02:23:44.286Z,56.67
2017-11-20T02:26:10.566Z,56.66
2017-11-20T02:28:36.798Z,56.73
2017-11-20T02:31:03.028Z,56.78
2017-11-20T02:33:29.297Z,56.79
2017-11-20T02:35:55.534Z,56.78
2017-11-20T02:38:21.750Z,56.66
2017-11-20T02:40:48.109Z,56.65
2017-11-20T02:43:14.318Z,56.65
2017-11-20T02:45:40.530Z,56.77
2017-11-20T02:48:06.803Z,56.77
2017-11-20T02:50:33.396Z,56.72
2017-11-20T02:52:59.610Z,56.76
2017-11-20T02:55:25.974Z,56.74
2017-11-20T02:57:52.184Z,56.66
2017-11-20T03:00:18.630Z,56.63
2017-11-20T03:02:44.881Z,56.77
2017-11-20T03:05:11.080Z,56.94
2017-11-20T03:07:37.306Z,56.95
2017-11-20T03:10:03.781Z,56.80
2017-11-20T03:12:30.057Z,56.73
2017-11-20T03:14:56.354Z,56.75
2017-11-20T03:17:22.605Z,56.71
2017-11-20T03:19:48.786Z,56.74
2017-11-20T03:22:14.979Z,56.76
2017-11-20T03:24:41.321Z,56.83
2017-11-20T03:27:07.534Z,56.75
2017-11-20T03:29:33.729Z,56.76
2017-11-20T03:32:00.053Z,56.72
2017-11-20T03:34:26.255Z,56.75
2017-11-20T03:36:52.630Z,56.80
2017-11-20T03:39:18.845Z,56.76
2017-11-20T03:41:45.066Z,56.75
2017-11-20T03:44:11.566Z,56.77
2017-11-20T03:46:37.824Z,56.72
2017-11-20T03:49:04.022Z,56.79
2017-11-20T03:51:30.231Z,56.93
2017-11-20T03:53:56.558Z,57.01
2017-11-20T03:56:22.756Z,56.87
2017-11-20T03:58:48.942Z,56.91
2017-11-20T04:01:15.173Z,57.00
2017-11-20T04:03:41.358Z,57.08
2017-11-20T04:06:07.538Z,57.10
2017-11-20T04:08:33.777Z,57.39
2017-11-20T04:10:59.998Z,56.96
2017-11-20T04:13:26.171Z,56.99
2017-11-20T04:15:52.496Z,56.83
2017-11-20T04:18:18.690Z,56.99
2017-11-20T04:20:44.966Z,57.10
2017-11-20T04:23:11.295Z,57.09
2017-11-20T04:25:37.547Z,57.16
2017-11-20T04:28:03.976Z,57.18
2017-11-20T04:30:30.201Z,57.11
2017-11-20T04:32:56.382Z,57.14
2017-11-20T04:35:22.564Z,57.19
2017-11-20T04:37:48.923Z,57.14
2017-11-20T04:40:15.110Z,57.17
2017-11-20T04:42:41.301Z,57.16
2017-11-20T04:45:07.774Z,57.17
2017-11-20T04:47:33.974Z,57.13
2017-11-20T04:50:00.178Z,57.22
2017-11-20T04:52:26.497Z,56.95
2017-11-20T04:54:52.682Z,56.82
2017-11-20T04:57:18.880Z,56.73
2017-11-20T04:59:45.207Z,56.71
2017-11-20T05:02:11.492Z,56.79
2017-11-20T05:04:37.683Z,56.76
2017-11-20T05:07:03.958Z,56.87
2017-11-20T05:09:30.426Z,57.13
2017-11-20T05:11:56.621Z,57.26
2017-11-20T05:14:22.933Z,57.38
2017-11-20T05:16:49.155Z,57.38
2017-11-20T05:19:15.594Z,57.33
2017-11-20T05:21:41.922Z,57.36
2017-11-20T05:24:08.141Z,57.19
2017-11-20T05:26:34.352Z,57.07
2017-11-20T05:29:00.609Z,57.00
2017-11-20T05:31:27.029Z,57.22
2017-11-20T05:33:53.484Z,57.27
2017-11-20T05:36:19.732Z,57.44
2017-11-20T05:38:45.922Z,57.35
2017-11-20T05:41:12.117Z,57.26
2017-11-20T05:43:38.452Z,57.47
2017-11-20T05:46:04.650Z,56.89
2017-11-20T05:48:30.841Z,56.52
2017-11-20T05:50:57.178Z,56.40
2017-11-20T05:53:23.510Z,56.24
2017-11-20T05:55:49.713Z,56.07
2017-11-20T05:58:16.137Z,55.89
2017-11-20T06:00:42.359Z,55.81
2017-11-20T06:03:08.550Z,55.75
2017-11-20T06:05:34.878Z,55.59
2017-11-20T06:08:01.294Z,55.51
2017-11-20T06:10:27.508Z,55.39
2017-11-20T06:12:53.841Z,55.33
2017-11-20T06:15:20.070Z,55.38
2017-11-20T06:17:46.302Z,55.41
2017-11-20T06:20:12.574Z,55.33
2017-11-20T06:22:39.010Z,55.19
2017-11-20T06:25:05.196Z,55.09
2017-11-20T06:27:31.517Z,55.10
2017-11-20T06:29:57.693Z,55.08
2017-11-20T06:32:23.865Z,55.14
2017-11-20T06:34:50.096Z,55.64
2017-11-20T06:37:17.092Z,55.64
2017-11-20T06:39:43.438Z,55.47
2017-11-20T06:42:10.104Z,55.48
2017-11-20T06:44:36.359Z,55.46
2017-11-20T06:47:02.565Z,55.36
2017-11-20T06:49:28.885Z,55.57
2017-11-20T06:51:55.112Z,55.74
2017-11-20T06:54:21.317Z,55.80
2017-11-20T06:56:47.646Z,55.51
2017-11-20T06:59:13.839Z,55.16
2017-11-20T07:01:40.289Z,54.76
2017-11-20T07:04:06.531Z,54.43
2017-11-20T07:06:32.730Z,54.21
2017-11-20T07:08:58.939Z,54.02
2017-11-20T07:11:25.307Z,53.85
2017-11-20T07:13:51.490Z,53.66
2017-11-20T07:16:17.691Z,53.58
2017-11-20T07:18:43.979Z,53.52
2017-11-20T07:21:10.174Z,53.42
2017-11-20T07:23:36.393Z,53.40
2017-11-20T07:26:15.005Z,53.28
2017-11-20T07:28:53.242Z,53.13
2017-11-20T07:31:28.296Z,53.01
2017-11-20T07:34:06.612Z,52.90
2017-11-20T07:36:45.212Z,52.85
2017-11-20T07:39:11.524Z,52.78
2017-11-20T07:41:49.809Z,52.69
2017-11-20T07:44:16.020Z,52.69
2017-11-20T07:46:42.299Z,52.62
2017-11-20T07:49:08.541Z,52.60
2017-11-20T07:51:34.738Z,52.57
2017-11-20T07:54:00.942Z,52.59
2017-11-20T07:56:27.201Z,52.52
2017-11-20T07:58:53.395Z,52.46
2017-11-20T08:01:19.591Z,52.48
2017-11-20T08:03:46.117Z,52.41
2017-11-20T08:06:12.451Z,52.36
2017-11-20T08:08:38.673Z,52.38
2017-11-20T08:11:05.030Z,52.41
2017-11-20T08:13:31.238Z,52.43
2017-11-20T08:15:57.431Z,52.47
2017-11-20T08:18:23.923Z,52.44
2017-11-20T08:20:50.118Z,52.38
2017-11-20T08:23:16.561Z,52.30
2017-11-20T08:25:42.897Z,52.25
2017-11-20T08:28:09.131Z,52.16
2017-11-20T08:30:35.355Z,52.19
2017-11-20T08:33:01.596Z,52.10
2017-11-20T08:35:27.797Z,52.00
2017-11-20T08:37:54.005Z,51.90
2017-11-20T08:40:21.408Z,51.88
2017-11-20T08:42:48.246Z,51.79
2017-11-20T08:45:14.483Z,51.80
2017-11-20T08:47:40.732Z,51.75
2017-11-20T08:50:06.948Z,51.68
2017-11-20T08:52:33.459Z,51.67
2017-11-20T08:54:59.739Z,51.78
2017-11-20T08:57:25.956Z,51.88
2017-11-20T08:59:52.170Z,51.91
2017-11-20T09:02:18.490Z,51.89
2017-11-20T09:04:44.702Z,51.88
2017-11-20T09:07:10.923Z,51.88
2017-11-20T09:09:37.335Z,51.80
2017-11-20T09:12:03.538Z,51.72
2017-11-20T09:14:29.844Z,51.74
2017-11-20T09:16:56.174Z,51.75
2017-11-20T09:19:22.531Z,51.73
2017-11-20T09:21:48.749Z,51.73
2017-11-20T09:24:15.023Z,51.68
2017-11-20T09:26:41.370Z,51.58
2017-11-20T09:29:07.660Z,51.52
2017-11-20T09:31:34.062Z,51.52
2017-11-20T09:34:00.297Z,51.56
2017-11-20T09:36:26.500Z,51.59
2017-11-20T09:38:52.757Z,51.55
2017-11-20T09:41:18.962Z,51.57
2017-11-20T09:43:45.168Z,51.59
2017-11-20T09:46:11.443Z,51.61
2017-11-20T09:48:37.896Z,51.58
2017-11-20T09:51:04.234Z,51.60
2017-11-20T09:53:30.574Z,51.63
2017-11-20T09:55:56.786Z,51.63
2017-11-20T09:58:22.989Z,51.64
2017-11-20T10:00:49.338Z,51.60
2017-11-20T10:03:15.791Z,51.63
2017-11-20T10:05:42.001Z,51.68
2017-11-20T10:08:08.379Z,51.71
2017-11-20T10:10:34.598Z,51.63
2017-11-20T10:13:01.004Z,51.57
2017-11-20T10:15:27.431Z,51.50
2017-11-20T10:17:53.654Z,51.50
2017-11-20T10:20:19.949Z,51.56
2017-11-20T10:22:46.207Z,51.49
2017-11-20T10:25:12.509Z,51.44
2017-11-20T10:27:38.730Z,51.38
2017-11-20T10:30:04.942Z,51.32
2017-11-20T10:32:31.233Z,51.32
2017-11-20T10:34:57.490Z,51.34
2017-11-20T10:37:23.702Z,51.35
2017-11-20T10:39:50.018Z,51.40
2017-11-20T10:42:22.642Z,51.34
2017-11-20T10:44:48.883Z,51.31
2017-11-20T10:47:15.148Z,51.21
2017-11-20T10:49:41.363Z,51.17
2017-11-20T10:52:07.588Z,51.15
2017-11-20T10:54:33.912Z,51.16
2017-11-20T10:57:00.103Z,51.14
2017-11-20T10:59:26.344Z,51.08
2017-11-20T11:01:52.654Z,51.01
2017-11-20T11:04:18.863Z,51.01
2017-11-20T11:06:45.091Z,50.97
2017-11-20T11:09:11.350Z,50.98
2017-11-20T11:11:37.800Z,50.93
2017-11-20T11:14:04.005Z,50.89
2017-11-20T11:16:30.640Z,50.96
2017-11-20T11:18:56.834Z,51.26
2017-11-20T11:21:23.052Z,51.39
2017-11-20T11:23:50.247Z,51.42
2017-11-20T11:26:16.934Z,51.24
2017-11-20T11:28:43.524Z,51.10
2017-11-20T11:31:09.966Z,51.08
2017-11-20T11:33:36.328Z,51.08
2017-11-20T11:36:04.009Z,51.05
2017-11-20T11:38:30.496Z,51.07
2017-11-20T11:40:56.957Z,51.09
2017-11-20T11:43:23.149Z,51.12
2017-11-20T11:45:49.422Z,51.15
2017-11-20T11:48:15.625Z,51.23
2017-11-20T11:50:41.847Z,51.18
2017-11-20T11:53:08.197Z,51.15
2017-11-20T11:55:34.392Z,51.15
2017-11-20T11:58:06.524Z,51.06
2017-11-20T12:00:32.958Z,51.06
2017-11-20T12:02:59.169Z,51.00
2017-11-20T12:05:25.477Z,51.05
2017-11-20T12:07:51.742Z,51.20
2017-11-20T12:10:17.966Z,51.40
2017-11-20T12:12:44.173Z,51.75
2017-11-20T12:15:10.547Z,51.85
2017-11-20T12:17:36.742Z,52.27
2017-11-20T12:20:02.996Z,52.97
2017-11-20T12:22:29.377Z,53.10
2017-11-20T12:24:55.673Z,53.20
2017-11-20T12:27:21.891Z,52.98
2017-11-20T12:29:48.390Z,52.76
2017-11-20T12:32:14.871Z,52.59
2017-11-20T12:34:41.095Z,52.49
2017-11-20T12:37:07.396Z,52.59
2017-11-20T12:39:33.862Z,52.43
2017-11-20T12:42:00.067Z,52.34
2017-11-20T12:44:26.391Z,52.32
2017-11-20T12:46:52.649Z,52.26
2017-11-20T12:49:18.837Z,52.13
2017-11-20T12:51:45.093Z,52.04
2017-11-20T12:54:11.301Z,51.98
2017-11-20T12:56:37.509Z,51.99
2017-11-20T12:59:03.759Z,51.96
2017-11-20T13:01:29.968Z,51.97
2017-11-20T13:03:56.195Z,51.86
2017-11-20T13:06:22.524Z,51.89
2017-11-20T13:08:48.733Z,51.89
2017-11-20T13:11:14.944Z,51.85
2017-11-20T13:13:41.230Z,51.78
2017-11-20T13:16:07.432Z,51.75
2017-11-20T13:21:24.690Z,51.68
2017-11-20T13:23:50.961Z,51.62
2017-11-20T13:26:17.363Z,51.58
2017-11-20T13:28:43.791Z,51.57
2017-11-20T13:31:10.019Z,51.55
2017-11-20T13:33:36.346Z,51.52
2017-11-20T13:36:02.615Z,51.52
2017-11-20T13:38:28.823Z,51.51
2017-11-20T13:40:55.030Z,51.53
2017-11-20T13:43:21.490Z,51.59
2017-11-20T13:45:47.721Z,51.53
2017-11-20T13:48:14.115Z,51.48
2017-11-20T13:50:40.433Z,51.53
2017-11-20T13:53:06.732Z,51.70
2017-11-20T13:55:32.978Z,51.81
2017-11-20T13:57:59.482Z,51.84
2017-11-20T14:00:25.677Z,51.80
2017-11-20T14:02:51.982Z,51.80
2017-11-20T14:05:18.550Z,51.78
2017-11-20T14:07:44.794Z,51.78
2017-11-20T14:10:11.051Z,51.77
2017-11-20T14:12:37.633Z,51.69
2017-11-20T14:15:03.923Z,51.62
2017-11-20T14:17:30.203Z,51.54
2017-11-20T14:19:56.516Z,51.39
2017-11-20T14:22:22.989Z,51.35
2017-11-20T14:24:49.221Z,51.30
2017-11-20T14:27:15.753Z,51.29
2017-11-20T14:29:41.965Z,51.22
2017-11-20T14:32:08.332Z,51.21
2017-11-20T14:34:34.718Z,51.25
2017-11-20T14:37:00.959Z,51.25
2017-11-20T14:39:27.242Z,51.32
2017-11-20T14:41:53.535Z,51.32
2017-11-20T14:44:20.015Z,51.30
2017-11-20T14:46:46.314Z,51.34
2017-11-20T14:49:12.754Z,51.30
2017-11-20T14:54:39.926Z,51.37
2017-11-20T14:57:06.247Z,51.39
2017-11-20T14:59:32.621Z,51.40
2017-11-20T15:01:59.981Z,51.37
2017-11-20T15:04:26.365Z,51.35
2017-11-20T15:09:24.558Z,51.34
2017-11-20T15:11:51.073Z,51.39
2017-11-20T15:14:17.446Z,51.36
2017-11-20T15:16:44.021Z,51.50
2017-11-20T15:19:10.294Z,51.51
2017-11-20T15:21:36.560Z,51.47
2017-11-20T15:24:02.816Z,51.50
2017-11-20T15:26:29.363Z,51.55
2017-11-20T15:28:55.898Z,51.50
2017-11-20T15:31:22.145Z,51.49
2017-11-20T15:33:48.515Z,51.53
2017-11-20T15:36:15.050Z,51.53
2017-11-20T15:38:41.298Z,51.56
2017-11-20T15:41:07.527Z,51.59
2017-11-20T15:43:33.784Z,51.55
2017-11-20T15:46:00.059Z,51.56
2017-11-20T15:48:26.265Z,51.54
2017-11-20T15:50:52.614Z,51.52
2017-11-20T15:53:18.807Z,51.45
2017-11-20T15:55:45.023Z,51.45
2017-11-20T15:58:11.558Z,51.50
2017-11-20T16:00:37.812Z,51.55
2017-11-20T16:03:04.031Z,51.45
2017-11-20T16:05:30.369Z,51.43
2017-11-20T16:07:56.561Z,51.51
2017-11-20T16:10:22.999Z,51.57
2017-11-20T16:12:49.520Z,51.58
2017-11-20T16:15:15.733Z,51.60
2017-11-20T16:17:41.965Z,51.69
2017-11-20T16:20:08.544Z,51.69
2017-11-20T16:22:34.763Z,51.70
2017-11-20T16:25:00.960Z,51.69
2017-11-20T16:27:27.320Z,51.78
2017-11-20T16:29:53.510Z,51.75
2017-11-20T16:32:19.764Z,51.72
2017-11-20T16:34:46.026Z,51.78
2017-11-20T16:37:12.198Z,51.79
2017-11-20T16:39:38.621Z,51.76
2017-11-20T16:42:05.114Z,51.84
2017-11-20T16:44:31.306Z,51.86
2017-11-20T16:46:57.512Z,51.90
2017-11-20T16:49:23.783Z,51.88
2017-11-20T16:51:50.065Z,51.92
2017-11-20T16:54:16.245Z,51.95
2017-11-20T16:56:42.609Z,52.09
2017-11-20T16:59:08.895Z,52.21
2017-11-20T17:01:47.422Z,52.41
2017-11-20T17:04:13.849Z,52.58
2017-11-20T17:06:40.033Z,52.74
2017-11-20T17:09:06.711Z,52.93
2017-11-20T17:11:32.927Z,52.96
2017-11-20T17:13:59.134Z,52.94
2017-11-20T17:16:25.441Z,52.85
2017-11-20T17:18:51.633Z,52.92
2017-11-20T17:21:17.857Z,53.07
2017-11-20T17:23:44.394Z,53.03
2017-11-20T17:26:10.855Z,53.04
2017-11-20T17:28:37.386Z,53.17
2017-11-20T17:31:03.715Z,53.33
2017-11-20T17:33:29.931Z,53.36
2017-11-20T17:35:56.111Z,53.21
2017-11-20T17:38:22.385Z,53.24
2017-11-20T17:40:48.607Z,53.29
2017-11-20T17:43:15.046Z,53.41
2017-11-20T17:45:41.317Z,53.61
2017-11-20T17:48:07.755Z,53.79
2017-11-20T17:50:33.975Z,53.75
2017-11-20T17:53:00.262Z,53.63
2017-11-20T17:55:26.487Z,53.59
2017-11-20T17:57:52.670Z,53.90
2017-11-20T18:00:19.001Z,54.10
2017-11-20T18:02:45.210Z,54.17
2017-11-20T18:05:11.642Z,53.87
2017-11-20T18:07:37.896Z,53.77
2017-11-20T18:10:04.100Z,53.80
2017-11-20T18:12:30.288Z,53.45
2017-11-20T18:14:56.634Z,53.30
2017-11-20T18:17:22.881Z,53.21
2017-11-20T18:19:49.090Z,53.23
2017-11-20T18:22:15.593Z,53.16
2017-11-20T18:24:42.014Z,53.17
2017-11-20T18:27:08.446Z,53.13
2017-11-20T18:29:34.963Z,53.13
2017-11-20T18:32:01.173Z,53.10
2017-11-20T18:34:27.371Z,53.10
2017-11-20T18:36:53.656Z,53.10
2017-11-20T18:39:20.088Z,53.08
2017-11-20T18:41:46.330Z,53.04
2017-11-20T18:44:12.602Z,52.99
2017-11-20T18:46:38.851Z,53.11
2017-11-20T18:49:05.111Z,52.95
2017-11-20T18:51:31.469Z,52.98
2017-11-20T18:53:58.002Z,53.02
2017-11-20T18:56:24.258Z,52.97
2017-11-20T18:58:50.499Z,52.89
2017-11-20T19:01:28.854Z,52.86
2017-11-20T19:07:10.196Z,52.79
2017-11-20T19:09:36.523Z,52.87
2017-11-20T19:12:02.752Z,52.92
2017-11-20T19:14:28.961Z,53.20
2017-11-20T19:16:55.227Z,53.50
2017-11-20T19:19:21.427Z,53.39
2017-11-20T19:21:47.621Z,53.45
2017-11-20T19:24:13.872Z,53.46
2017-11-20T19:26:40.066Z,53.35
2017-11-20T19:29:06.496Z,53.35
2017-11-20T19:31:32.987Z,53.27
2017-11-20T19:33:59.183Z,53.22
2017-11-20T19:36:25.393Z,53.28
2017-11-20T19:38:51.734Z,53.50
2017-11-20T19:41:17.983Z,53.55
2017-11-20T19:43:44.441Z,53.44
2017-11-20T19:46:10.688Z,53.21
2017-11-20T19:48:36.885Z,53.32
2017-11-20T19:51:03.172Z,53.26
2017-11-20T19:53:29.428Z,53.28
2017-11-20T19:55:55.609Z,53.23
2017-11-20T19:58:21.806Z,53.18
2017-11-20T20:00:48.052Z,53.22
2017-11-20T20:03:14.241Z,53.42
2017-11-20T20:05:40.427Z,53.60
2017-11-20T20:08:06.679Z,53.51
2017-11-20T20:10:32.889Z,53.53
2017-11-20T20:12:59.099Z,53.67
2017-11-20T20:18:26.473Z,53.66
2017-11-20T20:20:52.954Z,53.57
2017-11-20T20:23:19.394Z,53.52
2017-11-20T20:25:45.597Z,53.53
2017-11-20T20:28:11.938Z,53.49
2017-11-20T20:30:38.146Z,53.36
2017-11-20T20:33:04.619Z,53.39
2017-11-20T20:35:30.891Z,53.45
2017-11-20T20:37:57.116Z,53.44
2017-11-20T20:40:23.426Z,53.45
2017-11-20T20:42:49.703Z,53.47
2017-11-20T20:45:15.997Z,53.46
2017-11-20T20:47:42.208Z,53.49
2017-11-20T20:50:08.540Z,53.73
2017-11-20T20:52:34.972Z,53.86
2017-11-20T20:55:01.157Z,53.79
2017-11-20T20:57:27.484Z,53.77
2017-11-20T20:59:53.817Z,53.71
2017-11-20T21:02:20.265Z,53.67
2017-11-20T21:04:46.610Z,53.79
2017-11-20T21:07:12.807Z,53.82
2017-11-20T21:09:45.103Z,53.81
2017-11-20T21:12:17.784Z,53.80
2017-11-20T21:14:43.980Z,53.75
2017-11-20T21:17:10.174Z,53.73
2017-11-20T21:19:36.672Z,54.01
2017-11-20T21:22:02.861Z,54.03
2017-11-20T21:24:29.096Z,53.93
2017-11-20T21:26:55.419Z,53.88
2017-11-20T21:29:21.611Z,53.95
2017-11-20T21:31:47.831Z,53.93
2017-11-20T21:34:14.087Z,53.92
2017-11-20T21:36:40.300Z,53.95
2017-11-20T21:39:06.505Z,54.00
2017-11-20T21:41:32.979Z,53.98
2017-11-20T21:43:59.177Z,53.91
2017-11-20T21:46:25.377Z,54.12
2017-11-20T21:48:51.722Z,54.46
2017-11-20T21:51:17.944Z,54.61
2017-11-20T21:53:44.113Z,54.65
2017-11-20T21:56:10.417Z,54.67
2017-11-20T21:58:36.600Z,54.61
2017-11-20T22:01:02.812Z,54.35
2017-11-20T22:03:29.045Z,54.40
2017-11-20T22:05:55.228Z,54.64
2017-11-20T22:08:21.419Z,54.61
2017-11-20T22:10:47.695Z,54.62
2017-11-20T22:13:27.069Z,54.61
2017-11-20T22:15:53.400Z,54.52
2017-11-20T22:18:19.608Z,54.60
2017-11-20T22:20:45.834Z,54.73
2017-11-20T22:23:12.189Z,54.63
2017-11-20T22:25:38.401Z,54.71
2017-11-20T22:28:04.588Z,54.84
2017-11-20T22:30:30.972Z,54.85
2017-11-20T22:32:57.425Z,54.76
2017-11-20T22:35:23.639Z,54.79
2017-11-20T22:37:50.122Z,54.73
2017-11-20T22:40:16.313Z,54.74
2017-11-20T22:42:42.528Z,54.78
2017-11-20T22:45:08.841Z,54.67
2017-11-20T22:47:35.297Z,54.54
2017-11-20T22:50:01.498Z,54.51
2017-11-20T22:52:27.847Z,54.47
2017-11-20T22:54:54.049Z,54.53
2017-11-20T22:57:20.234Z,54.50
2017-11-20T22:59:46.736Z,54.50
2017-11-20T23:02:12.953Z,54.48
2017-11-20T23:04:39.167Z,54.32
2017-11-20T23:07:05.522Z,54.78
2017-11-20T23:09:31.733Z,54.99
2017-11-20T23:11:57.986Z,54.92
2017-11-20T23:14:24.243Z,54.82
2017-11-20T23:16:50.442Z,54.80
2017-11-20T23:19:16.670Z,54.77
2017-11-20T23:21:42.993Z,54.90
2017-11-20T23:24:09.189Z,54.87
2017-11-20T23:26:35.389Z,54.79
2017-11-20T23:29:01.881Z,54.65
2017-11-20T23:31:28.253Z,54.55
2017-11-20T23:33:54.680Z,54.75
2017-11-20T23:36:21.020Z,54.84
2017-11-20T23:38:47.222Z,55.06
2017-11-20T23:41:13.435Z,55.14
2017-11-20T23:43:39.776Z,55.09
2017-11-20T23:46:05.983Z,55.37
2017-11-20T23:48:32.175Z,55.25
2017-11-20T23:50:58.449Z,55.07
2017-11-20T23:53:33.714Z,55.07
2017-11-20T23:55:59.971Z,54.89
2017-11-20T23:58:26.180Z,54.87
